sensor_id;sensor_type;location;lat;lon;timestamp;temperature;humidity
3504;DHT22;1766;53.490;10.174;2022-08-24T00:01:03;27.00;35.50
3504;DHT22;1766;53.490;10.174;2022-08-24T00:03:05;27.00;35.30
3504;DHT22;1766;53.490;10.174;2022-08-24T00:05:11;27.00;34.90
3504;DHT22;1766;53.490;10.174;2022-08-24T00:07:13;27.00;35.20
3504;DHT22;1766;53.490;10.174;2022-08-24T00:09:16;27.00;35.30
3504;DHT22;1766;53.490;10.174;2022-08-24T00:11:18;26.90;35.20
3504;DHT22;1766;53.490;10.174;2022-08-24T00:13:20;26.90;35.40
3504;DHT22;1766;53.490;10.174;2022-08-24T00:15:22;26.90;35.40
3504;DHT22;1766;53.490;10.174;2022-08-24T00:17:26;26.80;35.60
3504;DHT22;1766;53.490;10.174;2022-08-24T00:19:28;26.80;35.70
3504;DHT22;1766;53.490;10.174;2022-08-24T00:21:30;26.80;35.80
3504;DHT22;1766;53.490;10.174;2022-08-24T00:23:33;26.80;35.80
3504;DHT22;1766;53.490;10.174;2022-08-24T00:25:36;26.80;36.10
3504;DHT22;1766;53.490;10.174;2022-08-24T00:27:40;26.80;36.00
3504;DHT22;1766;53.490;10.174;2022-08-24T00:29:42;26.80;36.20
3504;DHT22;1766;53.490;10.174;2022-08-24T00:31:45;26.80;35.90
3504;DHT22;1766;53.490;10.174;2022-08-24T00:33:48;26.70;36.00
3504;DHT22;1766;53.490;10.174;2022-08-24T00:35:50;26.70;36.20
3504;DHT22;1766;53.490;10.174;2022-08-24T00:37:53;26.70;36.40
3504;DHT22;1766;53.490;10.174;2022-08-24T00:39:56;26.60;36.50
3504;DHT22;1766;53.490;10.174;2022-08-24T00:41:58;26.60;36.60
3504;DHT22;1766;53.490;10.174;2022-08-24T00:44:03;26.60;36.50
3504;DHT22;1766;53.490;10.174;2022-08-24T00:46:15;26.60;36.80
3504;DHT22;1766;53.490;10.174;2022-08-24T00:48:21;26.50;36.90
3504;DHT22;1766;53.490;10.174;2022-08-24T00:50:31;26.50;36.90
3504;DHT22;1766;53.490;10.174;2022-08-24T00:52:39;26.50;37.10
3504;DHT22;1766;53.490;10.174;2022-08-24T00:54:48;26.40;37.00
3504;DHT22;1766;53.490;10.174;2022-08-24T00:56:55;26.40;37.10
3504;DHT22;1766;53.490;10.174;2022-08-24T00:59:02;26.40;37.20
3504;DHT22;1766;53.490;10.174;2022-08-24T01:01:08;26.40;37.20
3504;DHT22;1766;53.490;10.174;2022-08-24T01:03:13;26.30;37.30
3504;DHT22;1766;53.490;10.174;2022-08-24T01:05:15;26.40;37.30
3504;DHT22;1766;53.490;10.174;2022-08-24T01:07:20;26.30;37.50
3504;DHT22;1766;53.490;10.174;2022-08-24T01:09:23;26.30;37.60
3504;DHT22;1766;53.490;10.174;2022-08-24T01:11:26;25.80;37.20
3504;DHT22;1766;53.490;10.174;2022-08-24T01:13:30;26.30;37.80
3504;DHT22;1766;53.490;10.174;2022-08-24T01:15:37;26.20;37.90
3504;DHT22;1766;53.490;10.174;2022-08-24T01:17:39;26.20;38.10
3504;DHT22;1766;53.490;10.174;2022-08-24T01:19:57;26.20;38.00
3504;DHT22;1766;53.490;10.174;2022-08-24T01:22:10;26.10;38.20
3504;DHT22;1766;53.490;10.174;2022-08-24T01:24:19;26.10;38.50
3504;DHT22;1766;53.490;10.174;2022-08-24T01:26:25;26.10;38.10
3504;DHT22;1766;53.490;10.174;2022-08-24T01:28:29;26.10;38.50
3504;DHT22;1766;53.490;10.174;2022-08-24T01:30:31;26.00;38.40
3504;DHT22;1766;53.490;10.174;2022-08-24T01:32:34;26.00;38.40
3504;DHT22;1766;53.490;10.174;2022-08-24T01:34:35;26.00;38.50
3504;DHT22;1766;53.490;10.174;2022-08-24T01:36:40;26.00;38.70
3504;DHT22;1766;53.490;10.174;2022-08-24T01:38:44;26.00;39.00
3504;DHT22;1766;53.490;10.174;2022-08-24T01:40:51;25.90;38.90
3504;DHT22;1766;53.490;10.174;2022-08-24T01:42:55;25.80;39.10
3504;DHT22;1766;53.490;10.174;2022-08-24T01:44:57;25.90;38.70
3504;DHT22;1766;53.490;10.174;2022-08-24T01:47:00;25.70;38.90
3504;DHT22;1766;53.490;10.174;2022-08-24T01:49:03;25.80;39.40
3504;DHT22;1766;53.490;10.174;2022-08-24T01:51:05;25.80;39.40
3504;DHT22;1766;53.490;10.174;2022-08-24T01:53:08;25.70;39.40
3504;DHT22;1766;53.490;10.174;2022-08-24T01:55:13;25.70;39.60
3504;DHT22;1766;53.490;10.174;2022-08-24T01:57:17;25.70;39.70
3504;DHT22;1766;53.490;10.174;2022-08-24T01:59:20;25.70;39.70
3504;DHT22;1766;53.490;10.174;2022-08-24T02:01:22;25.70;39.90
3504;DHT22;1766;53.490;10.174;2022-08-24T02:03:24;25.60;39.90
3504;DHT22;1766;53.490;10.174;2022-08-24T02:05:26;25.60;39.80
3504;DHT22;1766;53.490;10.174;2022-08-24T02:07:28;25.60;40.00
3504;DHT22;1766;53.490;10.174;2022-08-24T02:09:32;25.60;39.90
3504;DHT22;1766;53.490;10.174;2022-08-24T02:11:36;25.60;40.10
3504;DHT22;1766;53.490;10.174;2022-08-24T02:13:40;25.50;40.30
3504;DHT22;1766;53.490;10.174;2022-08-24T02:15:42;25.40;40.30
3504;DHT22;1766;53.490;10.174;2022-08-24T02:17:44;25.50;40.30
3504;DHT22;1766;53.490;10.174;2022-08-24T02:19:47;25.50;40.30
3504;DHT22;1766;53.490;10.174;2022-08-24T02:21:49;25.50;40.40
3504;DHT22;1766;53.490;10.174;2022-08-24T02:23:51;25.40;40.50
3504;DHT22;1766;53.490;10.174;2022-08-24T02:25:53;25.40;40.50
3504;DHT22;1766;53.490;10.174;2022-08-24T02:27:56;25.50;40.90
3504;DHT22;1766;53.490;10.174;2022-08-24T02:30:00;25.40;40.90
3504;DHT22;1766;53.490;10.174;2022-08-24T02:32:03;25.30;40.80
3504;DHT22;1766;53.490;10.174;2022-08-24T02:34:06;25.40;41.10
3504;DHT22;1766;53.490;10.174;2022-08-24T02:36:16;25.40;41.00
3504;DHT22;1766;53.490;10.174;2022-08-24T02:38:17;25.30;41.00
3504;DHT22;1766;53.490;10.174;2022-08-24T02:40:20;25.30;41.10
3504;DHT22;1766;53.490;10.174;2022-08-24T02:42:22;25.30;41.30
3504;DHT22;1766;53.490;10.174;2022-08-24T02:44:24;25.30;41.30
3504;DHT22;1766;53.490;10.174;2022-08-24T02:46:29;25.40;41.60
3504;DHT22;1766;53.490;10.174;2022-08-24T02:48:31;25.20;41.70
3504;DHT22;1766;53.490;10.174;2022-08-24T02:50:37;25.20;41.50
3504;DHT22;1766;53.490;10.174;2022-08-24T02:52:41;25.10;41.70
3504;DHT22;1766;53.490;10.174;2022-08-24T02:54:43;25.20;41.80
3504;DHT22;1766;53.490;10.174;2022-08-24T02:56:45;25.20;41.70
3504;DHT22;1766;53.490;10.174;2022-08-24T02:58:48;25.10;41.80
3504;DHT22;1766;53.490;10.174;2022-08-24T03:00:50;25.10;41.90
3504;DHT22;1766;53.490;10.174;2022-08-24T03:02:54;25.00;41.90
3504;DHT22;1766;53.490;10.174;2022-08-24T03:04:56;25.00;42.10
3504;DHT22;1766;53.490;10.174;2022-08-24T03:06:58;24.90;41.90
3504;DHT22;1766;53.490;10.174;2022-08-24T03:09:00;25.00;42.20
3504;DHT22;1766;53.490;10.174;2022-08-24T03:11:03;24.80;42.40
3504;DHT22;1766;53.490;10.174;2022-08-24T03:13:06;24.80;42.50
3504;DHT22;1766;53.490;10.174;2022-08-24T03:15:10;24.80;42.50
3504;DHT22;1766;53.490;10.174;2022-08-24T03:17:13;24.80;42.70
3504;DHT22;1766;53.490;10.174;2022-08-24T03:19:16;24.70;42.60
3504;DHT22;1766;53.490;10.174;2022-08-24T03:21:18;24.70;42.60
3504;DHT22;1766;53.490;10.174;2022-08-24T03:23:20;24.70;42.80
3504;DHT22;1766;53.490;10.174;2022-08-24T03:25:23;24.70;43.00
3504;DHT22;1766;53.490;10.174;2022-08-24T03:27:27;24.70;42.90
3504;DHT22;1766;53.490;10.174;2022-08-24T03:29:29;24.70;42.80
3504;DHT22;1766;53.490;10.174;2022-08-24T03:31:32;24.70;42.90
3504;DHT22;1766;53.490;10.174;2022-08-24T03:33:34;24.60;43.10
3504;DHT22;1766;53.490;10.174;2022-08-24T03:35:37;24.60;43.70
3504;DHT22;1766;53.490;10.174;2022-08-24T03:37:39;24.60;43.40
3504;DHT22;1766;53.490;10.174;2022-08-24T03:39:41;24.40;43.10
3504;DHT22;1766;53.490;10.174;2022-08-24T03:41:43;24.50;43.20
3504;DHT22;1766;53.490;10.174;2022-08-24T03:43:45;24.60;43.30
3504;DHT22;1766;53.490;10.174;2022-08-24T03:45:46;24.60;43.40
3504;DHT22;1766;53.490;10.174;2022-08-24T03:47:48;24.50;43.40
3504;DHT22;1766;53.490;10.174;2022-08-24T03:49:51;24.50;43.70
3504;DHT22;1766;53.490;10.174;2022-08-24T03:51:54;24.50;43.60
3504;DHT22;1766;53.490;10.174;2022-08-24T03:53:58;24.50;43.70
3504;DHT22;1766;53.490;10.174;2022-08-24T03:56:00;24.50;44.00
3504;DHT22;1766;53.490;10.174;2022-08-24T03:58:02;24.60;43.90
3504;DHT22;1766;53.490;10.174;2022-08-24T04:00:07;24.50;43.90
3504;DHT22;1766;53.490;10.174;2022-08-24T04:02:11;24.40;44.10
3504;DHT22;1766;53.490;10.174;2022-08-24T04:04:13;24.40;43.90
3504;DHT22;1766;53.490;10.174;2022-08-24T04:06:20;24.40;44.10
3504;DHT22;1766;53.490;10.174;2022-08-24T04:08:24;24.40;44.30
3504;DHT22;1766;53.490;10.174;2022-08-24T04:10:26;24.40;44.10
3504;DHT22;1766;53.490;10.174;2022-08-24T04:12:28;24.40;44.20
3504;DHT22;1766;53.490;10.174;2022-08-24T04:14:30;24.40;44.20
3504;DHT22;1766;53.490;10.174;2022-08-24T04:16:32;24.40;44.40
3504;DHT22;1766;53.490;10.174;2022-08-24T04:18:34;24.30;44.30
3504;DHT22;1766;53.490;10.174;2022-08-24T04:20:38;24.20;44.50
3504;DHT22;1766;53.490;10.174;2022-08-24T04:22:41;24.20;44.80
3504;DHT22;1766;53.490;10.174;2022-08-24T04:24:44;24.20;44.70
3504;DHT22;1766;53.490;10.174;2022-08-24T04:26:46;24.20;44.80
3504;DHT22;1766;53.490;10.174;2022-08-24T04:28:48;24.20;45.00
3504;DHT22;1766;53.490;10.174;2022-08-24T04:30:51;23.80;44.90
3504;DHT22;1766;53.490;10.174;2022-08-24T04:32:53;24.30;45.10
3504;DHT22;1766;53.490;10.174;2022-08-24T04:34:55;25.00;45.60
3504;DHT22;1766;53.490;10.174;2022-08-24T04:36:58;24.20;45.10
3504;DHT22;1766;53.490;10.174;2022-08-24T04:39:00;24.10;45.10
3504;DHT22;1766;53.490;10.174;2022-08-24T04:41:05;24.30;45.50
3504;DHT22;1766;53.490;10.174;2022-08-24T04:43:08;24.30;45.50
3504;DHT22;1766;53.490;10.174;2022-08-24T04:45:10;24.40;45.40
3504;DHT22;1766;53.490;10.174;2022-08-24T04:47:12;24.30;45.40
3504;DHT22;1766;53.490;10.174;2022-08-24T04:49:14;24.30;45.50
3504;DHT22;1766;53.490;10.174;2022-08-24T04:51:17;24.40;45.50
3504;DHT22;1766;53.490;10.174;2022-08-24T04:53:20;24.40;45.70
3504;DHT22;1766;53.490;10.174;2022-08-24T04:55:22;24.40;45.40
3504;DHT22;1766;53.490;10.174;2022-08-24T04:57:25;24.40;45.50
3504;DHT22;1766;53.490;10.174;2022-08-24T04:59:27;24.40;45.50
3504;DHT22;1766;53.490;10.174;2022-08-24T05:01:29;24.40;45.50
3504;DHT22;1766;53.490;10.174;2022-08-24T05:03:32;24.40;45.70
3504;DHT22;1766;53.490;10.174;2022-08-24T05:05:34;24.50;45.80
3504;DHT22;1766;53.490;10.174;2022-08-24T05:07:37;24.50;45.90
3504;DHT22;1766;53.490;10.174;2022-08-24T05:09:39;24.50;46.00
3504;DHT22;1766;53.490;10.174;2022-08-24T05:11:41;24.50;46.10
3504;DHT22;1766;53.490;10.174;2022-08-24T05:13:45;24.60;46.10
3504;DHT22;1766;53.490;10.174;2022-08-24T05:15:47;24.60;46.20
3504;DHT22;1766;53.490;10.174;2022-08-24T05:17:49;24.50;46.00
3504;DHT22;1766;53.490;10.174;2022-08-24T05:19:51;24.70;46.10
3504;DHT22;1766;53.490;10.174;2022-08-24T05:21:53;24.70;46.10
3504;DHT22;1766;53.490;10.174;2022-08-24T05:23:56;24.80;46.20
3504;DHT22;1766;53.490;10.174;2022-08-24T05:26:03;24.80;46.30
3504;DHT22;1766;53.490;10.174;2022-08-24T05:28:06;24.80;46.50
3504;DHT22;1766;53.490;10.174;2022-08-24T05:30:11;24.90;46.50
3504;DHT22;1766;53.490;10.174;2022-08-24T05:32:15;25.00;46.50
3504;DHT22;1766;53.490;10.174;2022-08-24T05:34:18;25.00;46.60
3504;DHT22;1766;53.490;10.174;2022-08-24T05:36:22;25.10;46.50
3504;DHT22;1766;53.490;10.174;2022-08-24T05:38:25;25.10;46.60
3504;DHT22;1766;53.490;10.174;2022-08-24T05:40:27;25.10;46.60
3504;DHT22;1766;53.490;10.174;2022-08-24T05:42:32;25.10;46.60
3504;DHT22;1766;53.490;10.174;2022-08-24T05:44:34;25.10;46.70
3504;DHT22;1766;53.490;10.174;2022-08-24T05:46:39;25.20;46.80
3504;DHT22;1766;53.490;10.174;2022-08-24T05:48:41;25.20;46.90
3504;DHT22;1766;53.490;10.174;2022-08-24T05:50:43;25.10;46.70
3504;DHT22;1766;53.490;10.174;2022-08-24T05:52:45;25.30;46.90
3504;DHT22;1766;53.490;10.174;2022-08-24T05:54:51;25.30;47.00
3504;DHT22;1766;53.490;10.174;2022-08-24T05:56:53;25.30;47.20
3504;DHT22;1766;53.490;10.174;2022-08-24T05:58:56;25.40;47.00
3504;DHT22;1766;53.490;10.174;2022-08-24T06:01:03;25.40;47.10
3504;DHT22;1766;53.490;10.174;2022-08-24T06:03:07;25.50;47.30
3504;DHT22;1766;53.490;10.174;2022-08-24T06:05:09;25.50;47.20
3504;DHT22;1766;53.490;10.174;2022-08-24T06:07:12;25.60;47.20
3504;DHT22;1766;53.490;10.174;2022-08-24T06:09:14;25.60;47.10
3504;DHT22;1766;53.490;10.174;2022-08-24T06:11:21;25.80;47.20
3504;DHT22;1766;53.490;10.174;2022-08-24T06:13:24;25.80;47.20
3504;DHT22;1766;53.490;10.174;2022-08-24T06:15:25;26.00;47.20
3504;DHT22;1766;53.490;10.174;2022-08-24T06:17:27;25.80;47.00
3504;DHT22;1766;53.490;10.174;2022-08-24T06:19:32;25.90;47.20
3504;DHT22;1766;53.490;10.174;2022-08-24T06:21:35;25.90;47.30
3504;DHT22;1766;53.490;10.174;2022-08-24T06:23:39;26.00;47.30
3504;DHT22;1766;53.490;10.174;2022-08-24T06:25:41;26.00;47.30
3504;DHT22;1766;53.490;10.174;2022-08-24T06:27:57;26.00;47.40
3504;DHT22;1766;53.490;10.174;2022-08-24T06:30:02;26.00;47.30
3504;DHT22;1766;53.490;10.174;2022-08-24T06:32:05;26.00;47.60
3504;DHT22;1766;53.490;10.174;2022-08-24T06:34:07;26.10;47.70
3504;DHT22;1766;53.490;10.174;2022-08-24T06:36:11;26.20;47.80
3504;DHT22;1766;53.490;10.174;2022-08-24T06:38:13;26.20;47.40
3504;DHT22;1766;53.490;10.174;2022-08-24T06:40:14;26.20;47.60
3504;DHT22;1766;53.490;10.174;2022-08-24T06:42:19;26.20;47.70
3504;DHT22;1766;53.490;10.174;2022-08-24T06:44:21;26.30;47.70
3504;DHT22;1766;53.490;10.174;2022-08-24T06:46:23;26.40;47.60
3504;DHT22;1766;53.490;10.174;2022-08-24T06:48:26;26.30;47.60
3504;DHT22;1766;53.490;10.174;2022-08-24T06:50:29;26.50;47.80
3504;DHT22;1766;53.490;10.174;2022-08-24T06:52:33;26.50;47.70
3504;DHT22;1766;53.490;10.174;2022-08-24T06:54:36;26.60;47.90
3504;DHT22;1766;53.490;10.174;2022-08-24T06:56:38;26.60;47.70
3504;DHT22;1766;53.490;10.174;2022-08-24T06:58:40;26.70;47.80
3504;DHT22;1766;53.490;10.174;2022-08-24T07:00:42;26.70;47.80
3504;DHT22;1766;53.490;10.174;2022-08-24T07:02:43;26.70;47.80
3504;DHT22;1766;53.490;10.174;2022-08-24T07:04:46;26.80;47.90
3504;DHT22;1766;53.490;10.174;2022-08-24T07:06:48;26.90;48.00
3504;DHT22;1766;53.490;10.174;2022-08-24T07:08:54;27.00;48.00
3504;DHT22;1766;53.490;10.174;2022-08-24T07:10:56;27.00;47.80
3504;DHT22;1766;53.490;10.174;2022-08-24T07:12:58;27.10;47.90
3504;DHT22;1766;53.490;10.174;2022-08-24T07:15:00;27.10;47.80
3504;DHT22;1766;53.490;10.174;2022-08-24T07:17:03;27.20;47.80
3504;DHT22;1766;53.490;10.174;2022-08-24T07:19:07;27.30;47.80
3504;DHT22;1766;53.490;10.174;2022-08-24T07:21:09;27.30;47.70
3504;DHT22;1766;53.490;10.174;2022-08-24T07:23:12;27.40;47.30
3504;DHT22;1766;53.490;10.174;2022-08-24T07:25:15;27.40;47.60
3504;DHT22;1766;53.490;10.174;2022-08-24T07:27:17;27.40;47.50
3504;DHT22;1766;53.490;10.174;2022-08-24T07:29:19;27.50;47.50
3504;DHT22;1766;53.490;10.174;2022-08-24T07:31:21;27.60;47.50
3504;DHT22;1766;53.490;10.174;2022-08-24T07:33:23;27.70;47.30
3504;DHT22;1766;53.490;10.174;2022-08-24T07:35:27;27.70;47.20
3504;DHT22;1766;53.490;10.174;2022-08-24T07:37:30;27.90;47.40
3504;DHT22;1766;53.490;10.174;2022-08-24T07:39:32;27.90;47.10
3504;DHT22;1766;53.490;10.174;2022-08-24T07:41:40;28.10;46.80
3504;DHT22;1766;53.490;10.174;2022-08-24T07:43:45;28.00;47.00
3504;DHT22;1766;53.490;10.174;2022-08-24T07:45:48;28.10;46.80
3504;DHT22;1766;53.490;10.174;2022-08-24T07:49:52;28.20;46.10
3504;DHT22;1766;53.490;10.174;2022-08-24T07:51:54;28.10;46.30
3504;DHT22;1766;53.490;10.174;2022-08-24T07:53:56;28.30;45.80
3504;DHT22;1766;53.490;10.174;2022-08-24T07:55:58;28.20;46.10
3504;DHT22;1766;53.490;10.174;2022-08-24T07:58:01;28.40;46.10
3504;DHT22;1766;53.490;10.174;2022-08-24T08:00:05;28.40;45.90
3504;DHT22;1766;53.490;10.174;2022-08-24T08:02:12;28.50;45.60
3504;DHT22;1766;53.490;10.174;2022-08-24T08:04:14;28.50;45.60
3504;DHT22;1766;53.490;10.174;2022-08-24T08:06:21;28.60;45.50
3504;DHT22;1766;53.490;10.174;2022-08-24T08:08:23;28.60;45.30
3504;DHT22;1766;53.490;10.174;2022-08-24T08:10:25;28.70;45.20
3504;DHT22;1766;53.490;10.174;2022-08-24T08:12:30;28.80;45.20
3504;DHT22;1766;53.490;10.174;2022-08-24T08:14:33;28.70;45.00
3504;DHT22;1766;53.490;10.174;2022-08-24T08:16:35;28.70;45.00
3504;DHT22;1766;53.490;10.174;2022-08-24T08:18:38;28.90;44.80
3504;DHT22;1766;53.490;10.174;2022-08-24T08:20:41;28.90;44.70
3504;DHT22;1766;53.490;10.174;2022-08-24T08:22:43;29.00;44.80
3504;DHT22;1766;53.490;10.174;2022-08-24T08:24:59;29.00;44.50
3504;DHT22;1766;53.490;10.174;2022-08-24T08:27:01;29.10;44.40
3504;DHT22;1766;53.490;10.174;2022-08-24T08:29:03;29.10;44.30
3504;DHT22;1766;53.490;10.174;2022-08-24T08:31:06;29.20;43.90
3504;DHT22;1766;53.490;10.174;2022-08-24T08:33:08;29.20;44.20
3504;DHT22;1766;53.490;10.174;2022-08-24T08:35:10;29.30;44.10
3504;DHT22;1766;53.490;10.174;2022-08-24T08:37:13;29.50;44.20
3504;DHT22;1766;53.490;10.174;2022-08-24T08:39:17;29.50;44.10
3504;DHT22;1766;53.490;10.174;2022-08-24T08:41:49;29.40;43.90
3504;DHT22;1766;53.490;10.174;2022-08-24T08:44:06;29.40;43.90
3504;DHT22;1766;53.490;10.174;2022-08-24T08:46:25;29.50;43.60
3504;DHT22;1766;53.490;10.174;2022-08-24T08:48:53;29.60;43.60
3504;DHT22;1766;53.490;10.174;2022-08-24T08:51:23;29.60;43.40
3504;DHT22;1766;53.490;10.174;2022-08-24T08:53:54;29.70;43.30
3504;DHT22;1766;53.490;10.174;2022-08-24T08:56:13;29.60;43.10
3504;DHT22;1766;53.490;10.174;2022-08-24T08:58:29;29.90;43.10
3504;DHT22;1766;53.490;10.174;2022-08-24T09:00:54;29.90;42.80
3504;DHT22;1766;53.490;10.174;2022-08-24T09:03:18;30.00;42.70
3504;DHT22;1766;53.490;10.174;2022-08-24T09:05:47;30.00;42.50
3504;DHT22;1766;53.490;10.174;2022-08-24T09:08:00;30.20;41.80
3504;DHT22;1766;53.490;10.174;2022-08-24T09:12:59;30.20;41.80
3504;DHT22;1766;53.490;10.174;2022-08-24T09:15:19;30.30;41.70
3504;DHT22;1766;53.490;10.174;2022-08-24T09:17:40;30.40;41.50
3504;DHT22;1766;53.490;10.174;2022-08-24T09:22:10;30.50;41.60
3504;DHT22;1766;53.490;10.174;2022-08-24T09:24:52;30.70;40.60
3504;DHT22;1766;53.490;10.174;2022-08-24T09:29:15;30.80;40.70
3504;DHT22;1766;53.490;10.174;2022-08-24T09:31:28;30.90;40.50
3504;DHT22;1766;53.490;10.174;2022-08-24T09:33:44;30.90;40.30
3504;DHT22;1766;53.490;10.174;2022-08-24T09:36:08;31.00;40.10
3504;DHT22;1766;53.490;10.174;2022-08-24T09:38:21;31.00;39.90
3504;DHT22;1766;53.490;10.174;2022-08-24T09:40:43;31.10;39.60
3504;DHT22;1766;53.490;10.174;2022-08-24T09:43:20;31.20;39.50
3504;DHT22;1766;53.490;10.174;2022-08-24T09:45:53;31.30;39.30
3504;DHT22;1766;53.490;10.174;2022-08-24T09:48:28;31.50;39.20
3504;DHT22;1766;53.490;10.174;2022-08-24T09:51:00;31.60;38.90
3504;DHT22;1766;53.490;10.174;2022-08-24T09:53:34;31.60;38.70
3504;DHT22;1766;53.490;10.174;2022-08-24T09:56:03;31.70;38.60
3504;DHT22;1766;53.490;10.174;2022-08-24T09:58:18;31.80;38.20
3504;DHT22;1766;53.490;10.174;2022-08-24T10:00:28;31.80;38.00
3504;DHT22;1766;53.490;10.174;2022-08-24T10:02:45;31.80;37.80
3504;DHT22;1766;53.490;10.174;2022-08-24T10:04:59;32.00;37.50
3504;DHT22;1766;53.490;10.174;2022-08-24T10:07:12;31.90;37.10
3504;DHT22;1766;53.490;10.174;2022-08-24T10:09:39;31.90;36.80
3504;DHT22;1766;53.490;10.174;2022-08-24T10:11:55;31.80;36.40
3504;DHT22;1766;53.490;10.174;2022-08-24T10:14:07;31.90;36.30
3504;DHT22;1766;53.490;10.174;2022-08-24T10:16:22;31.80;36.30
3504;DHT22;1766;53.490;10.174;2022-08-24T10:18:37;31.90;36.20
3504;DHT22;1766;53.490;10.174;2022-08-24T10:20:58;32.00;36.10
3504;DHT22;1766;53.490;10.174;2022-08-24T10:23:29;32.10;36.00
3504;DHT22;1766;53.490;10.174;2022-08-24T10:27:50;32.30;35.40
3504;DHT22;1766;53.490;10.174;2022-08-24T10:30:14;32.40;35.30
3504;DHT22;1766;53.490;10.174;2022-08-24T10:32:39;32.50;35.00
3504;DHT22;1766;53.490;10.174;2022-08-24T10:35:00;32.60;34.60
3504;DHT22;1766;53.490;10.174;2022-08-24T10:37:23;32.70;34.30
3504;DHT22;1766;53.490;10.174;2022-08-24T10:39:48;32.70;34.10
3504;DHT22;1766;53.490;10.174;2022-08-24T10:42:20;33.10;33.50
3504;DHT22;1766;53.490;10.174;2022-08-24T10:44:48;32.90;33.60
3504;DHT22;1766;53.490;10.174;2022-08-24T10:46:59;33.10;33.40
3504;DHT22;1766;53.490;10.174;2022-08-24T10:51:54;33.00;33.40
3504;DHT22;1766;53.490;10.174;2022-08-24T10:54:11;33.20;33.90
3504;DHT22;1766;53.490;10.174;2022-08-24T10:56:16;33.30;33.00
3504;DHT22;1766;53.490;10.174;2022-08-24T11:00:52;33.40;32.80
3504;DHT22;1766;53.490;10.174;2022-08-24T11:03:10;33.60;31.90
3504;DHT22;1766;53.490;10.174;2022-08-24T11:05:15;33.50;32.10
3504;DHT22;1766;53.490;10.174;2022-08-24T11:07:20;33.60;32.20
3504;DHT22;1766;53.490;10.174;2022-08-24T11:09:25;33.70;32.10
3504;DHT22;1766;53.490;10.174;2022-08-24T11:11:47;32.30;31.30
3504;DHT22;1766;53.490;10.174;2022-08-24T11:13:53;33.80;32.20
3504;DHT22;1766;53.490;10.174;2022-08-24T11:16:00;33.90;32.30
3504;DHT22;1766;53.490;10.174;2022-08-24T11:18:03;34.00;32.10
3504;DHT22;1766;53.490;10.174;2022-08-24T11:20:25;34.10;32.10
3504;DHT22;1766;53.490;10.174;2022-08-24T11:22:33;34.00;32.00
3504;DHT22;1766;53.490;10.174;2022-08-24T11:24:40;34.30;32.00
3504;DHT22;1766;53.490;10.174;2022-08-24T11:26:52;34.40;32.10
3504;DHT22;1766;53.490;10.174;2022-08-24T11:29:00;34.50;32.00
3504;DHT22;1766;53.490;10.174;2022-08-24T11:31:10;34.70;32.00
3504;DHT22;1766;53.490;10.174;2022-08-24T11:33:26;34.90;31.90
3504;DHT22;1766;53.490;10.174;2022-08-24T11:35:35;35.10;31.50
3504;DHT22;1766;53.490;10.174;2022-08-24T11:37:39;35.30;31.10
3504;DHT22;1766;53.490;10.174;2022-08-24T11:39:41;35.50;30.50
3504;DHT22;1766;53.490;10.174;2022-08-24T11:41:53;35.90;30.10
3504;DHT22;1766;53.490;10.174;2022-08-24T11:44:01;36.80;29.60
3504;DHT22;1766;53.490;10.174;2022-08-24T11:46:13;38.60;28.70
3504;DHT22;1766;53.490;10.174;2022-08-24T11:48:29;40.30;27.20
3504;DHT22;1766;53.490;10.174;2022-08-24T11:50:40;41.80;26.10
3504;DHT22;1766;53.490;10.174;2022-08-24T11:52:54;42.80;25.00
3504;DHT22;1766;53.490;10.174;2022-08-24T11:55:06;43.70;24.30
3504;DHT22;1766;53.490;10.174;2022-08-24T11:57:15;44.50;23.50
3504;DHT22;1766;53.490;10.174;2022-08-24T11:59:25;45.10;23.40
3504;DHT22;1766;53.490;10.174;2022-08-24T12:01:43;45.50;22.40
3504;DHT22;1766;53.490;10.174;2022-08-24T12:03:57;46.10;21.80
3504;DHT22;1766;53.490;10.174;2022-08-24T12:06:16;46.40;21.50
3504;DHT22;1766;53.490;10.174;2022-08-24T12:08:28;46.50;21.10
3504;DHT22;1766;53.490;10.174;2022-08-24T12:10:42;46.70;21.10
3504;DHT22;1766;53.490;10.174;2022-08-24T12:12:53;46.80;21.00
3504;DHT22;1766;53.490;10.174;2022-08-24T12:15:04;46.70;20.80
3504;DHT22;1766;53.490;10.174;2022-08-24T12:17:13;46.60;20.80
3504;DHT22;1766;53.490;10.174;2022-08-24T12:19:21;46.50;20.70
3504;DHT22;1766;53.490;10.174;2022-08-24T12:21:29;46.50;20.80
3504;DHT22;1766;53.490;10.174;2022-08-24T12:23:36;46.50;20.90
3504;DHT22;1766;53.490;10.174;2022-08-24T12:25:41;46.50;20.80
3504;DHT22;1766;53.490;10.174;2022-08-24T12:28:00;46.50;20.70
3504;DHT22;1766;53.490;10.174;2022-08-24T12:30:05;46.50;20.70
3504;DHT22;1766;53.490;10.174;2022-08-24T12:32:12;46.50;20.80
3504;DHT22;1766;53.490;10.174;2022-08-24T12:34:20;46.50;20.60
3504;DHT22;1766;53.490;10.174;2022-08-24T12:36:29;46.50;20.60
3504;DHT22;1766;53.490;10.174;2022-08-24T12:38:38;46.60;20.70
3504;DHT22;1766;53.490;10.174;2022-08-24T12:40:46;46.60;20.40
3504;DHT22;1766;53.490;10.174;2022-08-24T12:42:57;46.50;20.40
3504;DHT22;1766;53.490;10.174;2022-08-24T12:45:07;46.50;20.60
3504;DHT22;1766;53.490;10.174;2022-08-24T12:47:10;46.70;20.50
3504;DHT22;1766;53.490;10.174;2022-08-24T12:49:18;46.70;20.50
3504;DHT22;1766;53.490;10.174;2022-08-24T12:51:47;46.50;20.10
3504;DHT22;1766;53.490;10.174;2022-08-24T12:54:10;46.40;20.20
3504;DHT22;1766;53.490;10.174;2022-08-24T12:56:35;46.40;20.50
3504;DHT22;1766;53.490;10.174;2022-08-24T12:58:58;46.70;20.00
3504;DHT22;1766;53.490;10.174;2022-08-24T13:01:03;46.70;20.30
3504;DHT22;1766;53.490;10.174;2022-08-24T13:03:08;46.80;20.30
3504;DHT22;1766;53.490;10.174;2022-08-24T13:05:38;47.00;20.00
3504;DHT22;1766;53.490;10.174;2022-08-24T13:07:43;46.90;20.00
3504;DHT22;1766;53.490;10.174;2022-08-24T13:10:00;47.00;19.20
3504;DHT22;1766;53.490;10.174;2022-08-24T13:15:22;46.90;19.30
3504;DHT22;1766;53.490;10.174;2022-08-24T13:17:39;47.00;19.30
3504;DHT22;1766;53.490;10.174;2022-08-24T13:19:45;47.00;19.20
3504;DHT22;1766;53.490;10.174;2022-08-24T13:21:52;47.20;19.40
3504;DHT22;1766;53.490;10.174;2022-08-24T13:26:41;48.20;18.90
3504;DHT22;1766;53.490;10.174;2022-08-24T13:28:45;48.20;19.00
3504;DHT22;1766;53.490;10.174;2022-08-24T13:30:58;48.20;18.80
3504;DHT22;1766;53.490;10.174;2022-08-24T13:33:08;48.40;18.50
3504;DHT22;1766;53.490;10.174;2022-08-24T13:35:30;48.40;18.80
3504;DHT22;1766;53.490;10.174;2022-08-24T13:37:36;48.40;18.50
3504;DHT22;1766;53.490;10.174;2022-08-24T13:39:51;48.60;18.10
3504;DHT22;1766;53.490;10.174;2022-08-24T13:42:08;48.70;17.90
3504;DHT22;1766;53.490;10.174;2022-08-24T13:44:23;48.70;17.80
3504;DHT22;1766;53.490;10.174;2022-08-24T13:46:43;48.90;17.70
3504;DHT22;1766;53.490;10.174;2022-08-24T13:48:55;48.90;17.50
3504;DHT22;1766;53.490;10.174;2022-08-24T13:51:12;49.00;18.00
3504;DHT22;1766;53.490;10.174;2022-08-24T13:53:39;49.00;17.40
3504;DHT22;1766;53.490;10.174;2022-08-24T13:55:49;48.90;17.20
3504;DHT22;1766;53.490;10.174;2022-08-24T13:58:09;49.00;17.30
3504;DHT22;1766;53.490;10.174;2022-08-24T14:00:33;49.00;17.50